Tutayev, Russia
Current Conditions -  °F | °C
As of 6:30 PM on Saturday 20 Dec 2014 (Local Time) from UUDL Reporting Station
Overcast Overcast  
Wind Chill: 30°   Ceiling: 4000
Heat Index: 36°   Visibility: 6mi
Dew Point: 32°   Wind: 7mph
Humidity: 87%   Direction: 230°SW
Pressure: 29.32"   Gusts: NA
Location:  57.89°N, 39.55°E
Report Text: UUDL 201530Z 23003MPS 9999 OVC040 02/00 Q0993 NOSIG RMK QFE73623290250
Loading
Personal Weather Stations






























Interactive Weather Map New forecast layout! Learn more

10-Day Weather Forecast

Advertisements
Track Severe Weather on mobile